createdAt,value
2022-12-01T00:01:58.205Z,1.38
2022-12-01T00:04:28.448Z,1.88
2022-12-01T00:06:58.737Z,2.30
2022-12-01T00:09:57.645Z,2.33
2022-12-01T00:12:28.072Z,1.70
2022-12-01T00:15:02.743Z,2.15
2022-12-01T00:17:33.076Z,1.80
2022-12-01T00:20:03.869Z,1.60
2022-12-01T00:22:34.353Z,1.88
2022-12-01T00:25:04.634Z,1.98
2022-12-01T00:27:35.015Z,1.80
2022-12-01T00:30:05.902Z,2.22
2022-12-01T00:32:36.438Z,2.08
2022-12-01T00:35:08.715Z,1.80
2022-12-01T00:37:40.347Z,2.53
2022-12-01T00:40:11.997Z,2.40
2022-12-01T00:42:42.660Z,2.70
2022-12-01T00:45:13.507Z,3.03
2022-12-01T00:47:44.172Z,2.70
2022-12-01T00:50:14.688Z,2.60
2022-12-01T00:52:45.167Z,2.40
2022-12-01T00:55:15.403Z,2.28
2022-12-01T00:57:45.621Z,2.30
2022-12-01T01:00:16.661Z,2.50
2022-12-01T01:02:46.935Z,2.65
2022-12-01T01:05:17.141Z,2.60
2022-12-01T01:07:47.437Z,2.22
2022-12-01T01:10:17.747Z,2.00
2022-12-01T01:12:47.951Z,2.08
2022-12-01T01:15:18.203Z,2.00
2022-12-01T01:17:48.416Z,2.08
2022-12-01T01:20:18.769Z,2.00
2022-12-01T01:22:49.295Z,2.33
2022-12-01T01:25:19.471Z,2.15
2022-12-01T01:27:49.736Z,2.33
2022-12-01T01:30:20.547Z,2.33
2022-12-01T01:32:50.804Z,2.35
2022-12-01T01:35:21.033Z,2.40
2022-12-01T01:37:52.538Z,1.50
2022-12-01T01:40:22.754Z,1.50
2022-12-01T01:42:53.300Z,1.95
2022-12-01T01:45:25.533Z,2.28
2022-12-01T01:47:58.080Z,1.90
2022-12-01T01:50:30.986Z,2.47
2022-12-01T01:53:15.641Z,2.08
2022-12-01T01:55:46.326Z,1.90
2022-12-01T01:58:17.415Z,2.17
2022-12-01T02:00:48.334Z,1.92
2022-12-01T02:03:20.894Z,1.65
2022-12-01T02:05:51.623Z,2.03
2022-12-01T02:08:30.895Z,1.98
2022-12-01T02:11:19.337Z,2.03
2022-12-01T02:13:53.096Z,2.30
2022-12-01T02:16:23.372Z,1.63
2022-12-01T02:19:33.438Z,2.33
2022-12-01T02:22:20.081Z,2.10
2022-12-01T02:25:05.688Z,1.70
2022-12-01T02:28:08.202Z,1.70
2022-12-01T02:30:47.938Z,1.95
2022-12-01T02:33:40.593Z,1.65
2022-12-01T02:36:18.703Z,1.90
2022-12-01T02:39:07.656Z,1.77
2022-12-01T02:42:35.614Z,1.83
2022-12-01T02:45:12.263Z,1.80
2022-12-01T02:47:44.198Z,1.83
2022-12-01T02:50:15.839Z,1.77
2022-12-01T02:52:46.376Z,1.58
2022-12-01T02:55:16.897Z,1.60
2022-12-01T02:57:47.250Z,1.55
2022-12-01T03:00:18.827Z,1.92
2022-12-01T03:03:02.539Z,1.85
2022-12-01T03:06:10.202Z,1.95
2022-12-01T03:09:15.392Z,1.98
2022-12-01T03:11:58.678Z,2.00
2022-12-01T03:14:47.221Z,2.15
2022-12-01T03:17:22.273Z,2.00
2022-12-01T03:20:17.142Z,1.52
2022-12-01T03:22:57.462Z,1.83
2022-12-01T03:25:28.285Z,1.80
2022-12-01T03:28:20.602Z,1.50
2022-12-01T03:30:55.292Z,1.90
2022-12-01T03:33:36.235Z,1.30
2022-12-01T03:36:39.809Z,1.45
2022-12-01T03:39:16.834Z,1.83
2022-12-01T03:41:53.663Z,1.73
2022-12-01T03:44:29.235Z,1.63
2022-12-01T03:47:10.368Z,1.60
2022-12-01T03:49:42.197Z,1.70
2022-12-01T03:52:32.354Z,1.70
2022-12-01T03:55:28.643Z,1.83
2022-12-01T03:58:15.798Z,1.85
2022-12-01T04:00:51.490Z,1.35
2022-12-01T04:03:25.681Z,1.85
2022-12-01T04:05:56.007Z,1.13
2022-12-01T04:08:32.483Z,1.90
2022-12-01T04:11:24.495Z,1.70
2022-12-01T04:13:57.296Z,1.50
2022-12-01T04:16:27.691Z,1.42
2022-12-01T04:18:57.979Z,2.30
2022-12-01T04:21:28.265Z,1.50
2022-12-01T04:24:04.765Z,1.73
2022-12-01T04:26:37.594Z,1.60
2022-12-01T04:29:11.451Z,1.65
2022-12-01T04:31:42.494Z,2.03
2022-12-01T04:34:13.337Z,1.50
2022-12-01T04:36:43.583Z,2.00
2022-12-01T04:39:13.815Z,1.70
2022-12-01T04:41:44.006Z,2.08
2022-12-01T04:44:14.374Z,1.90
2022-12-01T04:46:44.715Z,1.70
2022-12-01T04:49:15.014Z,1.45
2022-12-01T04:51:45.227Z,1.77
2022-12-01T04:54:15.460Z,1.70
2022-12-01T04:56:45.779Z,1.70
2022-12-01T04:59:16.081Z,1.67
2022-12-01T05:01:48.456Z,1.60
2022-12-01T05:04:18.926Z,1.63
2022-12-01T05:06:49.208Z,1.80
2022-12-01T05:09:21.605Z,1.65
2022-12-01T05:11:51.794Z,1.40
2022-12-01T05:14:22.004Z,1.27
2022-12-01T05:16:52.164Z,1.92
2022-12-01T05:19:40.418Z,1.70
2022-12-01T05:22:10.620Z,1.65
2022-12-01T05:24:40.804Z,1.50
2022-12-01T05:27:11.002Z,1.48
2022-12-01T05:29:41.245Z,1.88
2022-12-01T05:32:11.403Z,1.80
2022-12-01T05:34:41.617Z,1.65
2022-12-01T05:37:11.917Z,1.60
2022-12-01T05:39:42.111Z,1.65
2022-12-01T05:42:12.307Z,1.83
2022-12-01T05:44:42.497Z,1.80
2022-12-01T05:47:12.796Z,2.05
2022-12-01T05:49:42.982Z,1.80
2022-12-01T05:52:13.270Z,1.63
2022-12-01T05:54:43.597Z,1.90
2022-12-01T05:57:14.036Z,1.48
2022-12-01T05:59:44.337Z,1.70
2022-12-01T06:02:14.889Z,1.83
2022-12-01T06:04:45.159Z,1.60
2022-12-01T06:07:15.577Z,2.17
2022-12-01T06:09:48.369Z,1.20
2022-12-01T06:12:19.039Z,1.83
2022-12-01T06:14:49.329Z,1.30
2022-12-01T06:17:19.632Z,1.85
2022-12-01T06:19:50.051Z,1.73
2022-12-01T06:22:20.748Z,1.33
2022-12-01T06:24:51.047Z,1.67
2022-12-01T06:27:21.341Z,1.50
2022-12-01T06:29:51.846Z,1.50
2022-12-01T06:32:22.286Z,1.80
2022-12-01T06:34:52.608Z,1.95
2022-12-01T06:37:22.950Z,1.48
2022-12-01T06:39:53.250Z,1.20
2022-12-01T06:42:23.487Z,1.80
2022-12-01T06:44:53.673Z,1.50
2022-12-01T06:47:23.888Z,1.42
2022-12-01T06:49:54.129Z,1.10
2022-12-01T06:52:24.347Z,1.50
2022-12-01T06:54:54.569Z,1.80
2022-12-01T06:57:25.139Z,1.30
2022-12-01T06:59:55.860Z,1.20
2022-12-01T07:02:26.798Z,1.77
2022-12-01T07:04:57.168Z,1.60
2022-12-01T07:07:27.515Z,1.42
2022-12-01T07:09:57.812Z,1.58
2022-12-01T07:12:28.141Z,1.88
2022-12-01T07:14:59.698Z,1.45
2022-12-01T07:17:30.115Z,1.67
2022-12-01T07:20:00.619Z,1.48
2022-12-01T07:22:32.968Z,1.90
2022-12-01T07:25:03.440Z,1.27
2022-12-01T07:27:34.456Z,1.60
2022-12-01T07:30:05.028Z,1.40
2022-12-01T07:32:35.286Z,1.33
2022-12-01T07:35:05.535Z,1.50
2022-12-01T07:37:35.716Z,1.60
2022-12-01T07:40:06.143Z,1.63
2022-12-01T07:42:36.438Z,1.67
2022-12-01T07:45:06.797Z,1.65
2022-12-01T07:47:37.023Z,1.63
2022-12-01T07:50:08.341Z,1.50
2022-12-01T07:52:38.489Z,1.88
2022-12-01T07:55:09.195Z,1.45
2022-12-01T07:57:39.386Z,1.60
2022-12-01T08:00:10.289Z,1.63
2022-12-01T08:02:40.694Z,1.35
2022-12-01T08:05:11.842Z,1.50
2022-12-01T08:07:42.862Z,1.23
2022-12-01T08:10:15.218Z,1.70
2022-12-01T08:12:46.002Z,1.27
2022-12-01T08:15:16.861Z,1.40
2022-12-01T08:17:48.019Z,1.25
2022-12-01T08:20:23.749Z,1.50
2022-12-01T08:22:54.642Z,1.80
2022-12-01T08:25:24.976Z,1.08
2022-12-01T08:27:55.624Z,1.42
2022-12-01T08:30:27.072Z,1.63
2022-12-01T08:33:00.793Z,1.35
2022-12-01T08:35:32.512Z,1.38
2022-12-01T08:38:02.854Z,1.40
2022-12-01T08:40:34.126Z,1.15
2022-12-01T08:43:04.697Z,1.40
2022-12-01T08:45:35.428Z,1.02
2022-12-01T08:48:05.967Z,1.60
2022-12-01T08:50:36.803Z,1.60
2022-12-01T08:53:07.389Z,1.10
2022-12-01T08:55:39.578Z,1.20
2022-12-01T08:58:10.462Z,1.65
2022-12-01T09:00:40.913Z,1.20
2022-12-01T09:03:14.268Z,1.40
2022-12-01T09:05:44.750Z,1.13
2022-12-01T09:08:32.819Z,1.42
2022-12-01T09:11:04.829Z,1.40
2022-12-01T09:13:37.219Z,1.13
2022-12-01T09:16:10.711Z,1.73
2022-12-01T09:18:41.738Z,1.30
2022-12-01T09:21:19.934Z,1.20
2022-12-01T09:23:51.067Z,1.10
2022-12-01T09:26:22.815Z,1.58
2022-12-01T09:28:57.300Z,1.15
2022-12-01T09:31:28.122Z,1.08
2022-12-01T09:34:05.902Z,1.65
2022-12-01T09:36:38.165Z,1.27
2022-12-01T09:39:10.726Z,1.27
2022-12-01T09:41:50.180Z,1.20
2022-12-01T09:44:32.224Z,1.50
2022-12-01T09:47:03.266Z,1.48
2022-12-01T09:49:42.273Z,0.88
2022-12-01T09:52:18.664Z,1.60
2022-12-01T09:54:50.200Z,1.23
2022-12-01T09:57:30.101Z,1.08
2022-12-01T10:00:02.458Z,0.93
2022-12-01T10:02:50.560Z,1.42
2022-12-01T10:05:27.014Z,1.05
2022-12-01T10:08:05.374Z,1.00
2022-12-01T10:10:50.830Z,1.27
2022-12-01T10:13:26.174Z,1.05
2022-12-01T10:16:06.561Z,0.80
2022-12-01T10:18:48.410Z,1.00
2022-12-01T10:21:40.065Z,1.10
2022-12-01T10:24:37.556Z,1.13
2022-12-01T10:27:37.541Z,1.38
2022-12-01T10:30:11.425Z,1.15
2022-12-01T10:33:22.517Z,1.27
2022-12-01T10:35:53.625Z,1.10
2022-12-01T10:38:34.718Z,1.10
2022-12-01T10:41:07.996Z,1.20
2022-12-01T10:43:46.932Z,1.50
2022-12-01T10:46:26.672Z,1.27
2022-12-01T10:48:59.676Z,1.33
2022-12-01T10:51:30.968Z,1.10
2022-12-01T10:54:14.003Z,1.05
2022-12-01T10:56:48.776Z,0.90
2022-12-01T10:59:27.349Z,0.90
2022-12-01T11:01:59.098Z,1.10
2022-12-01T11:05:09.101Z,0.82
2022-12-01T11:07:50.541Z,1.00
2022-12-01T11:10:28.851Z,1.10
2022-12-01T11:13:02.096Z,1.02
2022-12-01T11:15:51.204Z,0.95
2022-12-01T11:18:39.829Z,1.10
2022-12-01T11:21:27.779Z,1.00
2022-12-01T11:23:59.613Z,0.90
2022-12-01T11:26:37.179Z,1.00
2022-12-01T11:29:25.106Z,1.05
2022-12-01T11:31:55.865Z,1.02
2022-12-01T11:34:28.294Z,0.88
2022-12-01T11:37:08.787Z,0.70
2022-12-01T11:39:42.264Z,1.20
2022-12-01T11:42:30.315Z,0.90
2022-12-01T11:45:20.817Z,0.75
2022-12-01T11:48:23.467Z,1.08
2022-12-01T11:51:10.195Z,0.95
2022-12-01T11:53:45.535Z,0.88
2022-12-01T11:56:32.354Z,0.93
2022-12-01T11:59:04.673Z,1.02
2022-12-01T12:01:40.968Z,1.00
2022-12-01T12:04:19.920Z,0.82
2022-12-01T12:07:09.276Z,0.90
2022-12-01T12:10:16.085Z,0.90
2022-12-01T12:13:04.068Z,0.95
2022-12-01T12:15:46.312Z,0.90
2022-12-01T12:18:28.511Z,0.85
2022-12-01T12:21:19.737Z,1.17
2022-12-01T12:24:19.619Z,0.80
2022-12-01T12:27:01.611Z,1.10
2022-12-01T12:29:37.637Z,0.80
2022-12-01T12:32:07.898Z,0.55
2022-12-01T12:35:02.364Z,0.60
2022-12-01T12:37:53.352Z,0.93
2022-12-01T12:40:32.708Z,0.90
2022-12-01T12:43:41.114Z,0.90
2022-12-01T12:46:11.543Z,0.70
2022-12-01T12:49:20.115Z,0.80
2022-12-01T12:52:08.107Z,0.70
2022-12-01T12:54:52.839Z,0.80
2022-12-01T12:57:57.408Z,0.63
2022-12-01T13:00:30.239Z,0.82
2022-12-01T13:03:07.652Z,0.80
2022-12-01T13:06:09.851Z,0.80
2022-12-01T13:08:40.117Z,0.68
2022-12-01T13:11:17.707Z,0.90
2022-12-01T13:13:58.971Z,0.85
2022-12-01T13:16:36.849Z,0.68
2022-12-01T13:19:43.343Z,0.60
2022-12-01T13:22:16.348Z,0.60
2022-12-01T13:24:46.785Z,0.88
2022-12-01T13:27:26.170Z,0.70
2022-12-01T13:29:58.280Z,0.70
2022-12-01T13:32:41.951Z,0.65
2022-12-01T13:35:24.330Z,0.88
2022-12-01T13:37:55.122Z,0.70
2022-12-01T13:40:26.831Z,0.88
2022-12-01T13:43:22.136Z,0.70
2022-12-01T13:45:54.023Z,0.60
2022-12-01T13:48:32.680Z,0.65
2022-12-01T13:51:05.357Z,0.60
2022-12-01T13:53:40.999Z,0.50
2022-12-01T13:56:20.432Z,0.65
2022-12-01T13:58:53.514Z,1.00
2022-12-01T14:01:24.531Z,0.65
2022-12-01T14:03:58.840Z,0.80
2022-12-01T14:06:50.845Z,0.70
2022-12-01T14:09:33.926Z,0.82
2022-12-01T14:12:39.755Z,0.80
2022-12-01T14:15:33.090Z,0.60
2022-12-01T14:18:22.822Z,0.60
2022-12-01T14:20:53.573Z,0.73
2022-12-01T14:23:35.726Z,0.80
2022-12-01T14:26:16.844Z,0.55
2022-12-01T14:29:26.540Z,0.80
2022-12-01T14:31:56.825Z,0.50
2022-12-01T14:34:28.810Z,0.52
2022-12-01T14:37:20.078Z,0.57
2022-12-01T14:40:15.128Z,0.60
2022-12-01T14:43:08.792Z,0.90
2022-12-01T14:46:12.382Z,0.63
2022-12-01T14:48:46.722Z,0.50
2022-12-01T14:51:37.456Z,0.60
2022-12-01T14:54:24.556Z,0.70
2022-12-01T14:57:04.326Z,0.80
2022-12-01T14:59:36.507Z,0.75
2022-12-01T15:02:13.861Z,0.70
2022-12-01T15:05:10.578Z,0.52
2022-12-01T15:07:46.111Z,0.93
2022-12-01T15:10:36.900Z,0.60
2022-12-01T15:13:30.104Z,0.70
2022-12-01T15:16:21.832Z,0.60
2022-12-01T15:18:52.902Z,0.50
2022-12-01T15:21:30.315Z,0.60
2022-12-01T15:24:06.941Z,0.47
2022-12-01T15:26:39.386Z,0.68
2022-12-01T15:29:28.161Z,0.43
2022-12-01T15:32:16.444Z,0.70
2022-12-01T15:34:49.612Z,0.43
2022-12-01T15:37:24.153Z,0.63
2022-12-01T15:40:47.786Z,0.50
2022-12-01T15:43:09.847Z,0.50
2022-12-01T15:46:03.905Z,0.50
2022-12-01T15:48:36.699Z,0.70
2022-12-01T15:51:26.474Z,0.60
2022-12-01T15:54:01.938Z,0.55
2022-12-01T15:56:42.198Z,0.68
2022-12-01T15:59:30.847Z,0.68
2022-12-01T16:02:01.727Z,0.73
2022-12-01T16:04:37.158Z,0.50
2022-12-01T16:07:13.221Z,0.60
2022-12-01T16:09:57.654Z,0.50
2022-12-01T16:12:30.149Z,0.60
2022-12-01T16:15:12.024Z,0.50
2022-12-01T16:17:47.839Z,0.60
2022-12-01T16:20:28.320Z,0.50
2022-12-01T16:23:06.156Z,0.50
2022-12-01T16:25:46.991Z,0.60
2022-12-01T16:28:27.500Z,0.40
2022-12-01T16:30:58.219Z,0.50
2022-12-01T16:33:30.652Z,0.50
2022-12-01T16:36:06.109Z,0.50
2022-12-01T16:38:36.286Z,0.50
2022-12-01T16:41:27.977Z,0.60
2022-12-01T16:44:20.635Z,0.60
2022-12-01T16:46:48.550Z,0.50
2022-12-01T16:49:18.755Z,0.60
2022-12-01T16:51:56.119Z,0.50
2022-12-01T16:54:27.269Z,0.50
2022-12-01T16:56:57.560Z,0.55
2022-12-01T16:59:28.294Z,0.57
2022-12-01T17:01:58.686Z,0.50
2022-12-01T17:04:29.571Z,0.50
2022-12-01T17:06:59.917Z,0.60
2022-12-01T17:09:30.473Z,0.73
2022-12-01T17:12:01.212Z,0.60
2022-12-01T17:14:31.899Z,0.60
2022-12-01T17:17:02.173Z,0.50
2022-12-01T17:19:32.389Z,0.60
2022-12-01T17:22:02.893Z,0.40
2022-12-01T17:24:33.165Z,0.50
2022-12-01T17:27:04.102Z,0.47
2022-12-01T17:29:34.505Z,0.60
2022-12-01T17:32:05.123Z,0.70
2022-12-01T17:34:35.487Z,0.50
2022-12-01T17:37:06.554Z,0.60
2022-12-01T17:39:37.050Z,0.63
2022-12-01T17:42:07.924Z,0.68
2022-12-01T17:44:38.486Z,0.60
2022-12-01T17:47:08.887Z,0.50
2022-12-01T17:49:39.617Z,0.50
2022-12-01T17:52:10.675Z,0.40
2022-12-01T17:54:40.871Z,0.50
2022-12-01T17:57:11.386Z,0.50
2022-12-01T17:59:44.790Z,0.50
2022-12-01T18:02:15.936Z,0.45
2022-12-01T18:04:46.195Z,0.47
2022-12-01T18:07:16.719Z,0.50
2022-12-01T18:09:46.992Z,0.60
2022-12-01T18:12:17.261Z,0.40
2022-12-01T18:14:47.624Z,0.50
2022-12-01T18:17:17.969Z,0.47
2022-12-01T18:19:48.274Z,0.45
2022-12-01T18:22:18.539Z,0.60
2022-12-01T18:24:49.110Z,0.40
2022-12-01T18:27:19.505Z,0.60
2022-12-01T18:29:50.339Z,0.38
2022-12-01T18:32:20.554Z,0.40
2022-12-01T18:34:50.940Z,0.60
2022-12-01T18:37:21.301Z,0.50
2022-12-01T18:39:51.640Z,0.50
2022-12-01T18:42:21.759Z,0.70
2022-12-01T18:44:52.111Z,0.50
2022-12-01T18:47:22.549Z,0.40
2022-12-01T18:49:52.787Z,0.60
2022-12-01T18:52:23.037Z,0.40
2022-12-01T18:54:53.348Z,0.40
2022-12-01T18:57:23.594Z,0.30
2022-12-01T18:59:53.873Z,0.50
2022-12-01T19:02:24.299Z,0.50
2022-12-01T19:04:54.534Z,0.40
2022-12-01T19:07:29.484Z,0.60
2022-12-01T19:10:00.302Z,0.55
2022-12-01T19:12:30.514Z,0.40
2022-12-01T19:15:00.706Z,0.40
2022-12-01T19:17:33.053Z,0.50
2022-12-01T19:20:03.285Z,0.57
2022-12-01T19:22:34.772Z,0.50
2022-12-01T19:25:04.935Z,0.75
2022-12-01T19:27:35.171Z,0.40
2022-12-01T19:30:05.876Z,0.60
2022-12-01T19:32:36.939Z,0.38
2022-12-01T19:35:07.512Z,0.43
2022-12-01T19:37:37.701Z,0.40
2022-12-01T19:40:08.530Z,0.50
2022-12-01T19:42:38.883Z,0.40
2022-12-01T19:45:09.740Z,0.40
2022-12-01T19:47:41.086Z,0.40
2022-12-01T19:50:12.243Z,0.30
2022-12-01T19:52:43.266Z,0.65
2022-12-01T19:55:13.629Z,0.50
2022-12-01T19:57:43.862Z,0.50
2022-12-01T20:00:14.855Z,0.40
2022-12-01T20:02:45.201Z,0.47
2022-12-01T20:05:15.573Z,0.45
2022-12-01T20:07:46.099Z,0.50
2022-12-01T20:10:16.696Z,0.43
2022-12-01T20:12:47.087Z,0.50
2022-12-01T20:15:18.201Z,0.45
2022-12-01T20:17:48.569Z,0.50
2022-12-01T20:20:19.663Z,0.50
2022-12-01T20:22:49.973Z,0.50
2022-12-01T20:25:20.415Z,0.77
2022-12-01T20:27:50.658Z,0.50
2022-12-01T20:30:20.937Z,0.40
2022-12-01T20:32:51.226Z,0.52
2022-12-01T20:35:21.491Z,0.50
2022-12-01T20:37:51.838Z,0.50
2022-12-01T20:40:22.340Z,0.68
2022-12-01T20:42:52.504Z,0.57
2022-12-01T20:45:22.753Z,0.40
2022-12-01T20:47:53.513Z,0.50
2022-12-01T20:50:23.796Z,0.50
2022-12-01T20:52:54.073Z,0.50
2022-12-01T20:55:26.084Z,0.40
2022-12-01T20:57:56.409Z,0.52
2022-12-01T21:00:26.902Z,0.40
2022-12-01T21:02:58.687Z,0.50
2022-12-01T21:05:29.792Z,0.50
2022-12-01T21:07:59.990Z,0.40
2022-12-01T21:10:30.575Z,0.70
2022-12-01T21:13:46.835Z,0.40
2022-12-01T21:16:28.092Z,0.50
2022-12-01T21:19:03.443Z,0.50
2022-12-01T21:21:42.523Z,0.45
2022-12-01T21:24:17.548Z,0.55
2022-12-01T21:27:07.721Z,0.40
2022-12-01T21:29:43.889Z,0.40
2022-12-01T21:32:33.343Z,0.60
2022-12-01T21:35:17.716Z,0.65
2022-12-01T21:37:49.817Z,0.60
2022-12-01T21:40:27.134Z,0.88
2022-12-01T21:42:58.808Z,0.45
2022-12-01T21:45:31.536Z,0.40
2022-12-01T21:48:26.681Z,0.40
2022-12-01T21:51:26.464Z,0.50
2022-12-01T21:53:59.007Z,0.75
2022-12-01T21:56:33.368Z,0.50
2022-12-01T21:59:19.974Z,0.50
2022-12-01T22:01:55.726Z,0.40
2022-12-01T22:04:33.130Z,0.50
2022-12-01T22:07:03.384Z,0.47
2022-12-01T22:09:38.096Z,0.57
2022-12-01T22:12:30.785Z,0.80
2022-12-01T22:15:13.178Z,0.47
2022-12-01T22:17:43.432Z,0.47
2022-12-01T22:20:24.847Z,0.50
2022-12-01T22:22:55.124Z,0.40
2022-12-01T22:25:31.352Z,0.77
2022-12-01T22:28:02.956Z,0.40
2022-12-01T22:30:33.553Z,0.50
2022-12-01T22:33:15.966Z,1.02
2022-12-01T22:35:55.003Z,0.95
2022-12-01T22:38:36.970Z,0.50
2022-12-01T22:41:15.700Z,0.47
2022-12-01T22:43:57.462Z,1.00
2022-12-01T22:46:34.002Z,0.60
2022-12-01T22:49:24.267Z,0.90
2022-12-01T22:51:54.835Z,1.02
2022-12-01T22:54:42.598Z,1.10
2022-12-01T22:57:39.065Z,1.15
2022-12-01T23:00:22.892Z,1.50
2022-12-01T23:02:55.258Z,1.63
2022-12-01T23:05:31.660Z,1.38
2022-12-01T23:08:03.506Z,1.42
2022-12-01T23:10:37.283Z,1.48
2022-12-01T23:13:27.457Z,2.10
2022-12-01T23:15:57.780Z,1.80
2022-12-01T23:18:35.823Z,2.30
2022-12-01T23:21:06.230Z,1.73
2022-12-01T23:23:38.774Z,1.67
2022-12-01T23:26:10.994Z,2.17
2022-12-01T23:28:43.195Z,2.35
2022-12-01T23:31:13.694Z,2.30
2022-12-01T23:33:44.026Z,1.90
2022-12-01T23:36:20.560Z,2.03
2022-12-01T23:38:54.185Z,2.38
2022-12-01T23:41:54.065Z,2.92
2022-12-01T23:44:41.115Z,2.17
2022-12-01T23:47:31.370Z,2.20
2022-12-01T23:50:06.127Z,2.10
2022-12-01T23:52:38.820Z,2.63
2022-12-01T23:55:23.749Z,2.75
2022-12-01T23:57:54.741Z,1.95
